Dades meteomassalio
Diari Summary for Juny 14, 2017 Units:  Metric    English   Both
« Previous Day
Next Day »
Diari Semanal Mensual Anual Personalitzat
  Maxima: Minima: Mijana:
Temperatura: -17.8 °C -8.2 °C -2.3 °C
Rosada: -17.8 °C -12.7 °C -10.7 °C
Humitat: Humidity % 27 % 41 %
Velocitat del vent: 0 km/h 0 km/h 8.4 km/h
Racha vent: 0 km/h - -
Vent:- - East
Pressio: 0 hPa 34178.3 hPa -
Pluja: 0 mm    
Historical Graphs
 
 
Tabular Data for Juny 14, 2017
Time Temperature Dew Point Pressure Wind Wind Speed Wind Gust Humidity Rainfall Rate (Hourly) solar Conditions
-17.8 °C -17.8 °C 0 hPa Calm     Humidity % 0 mm SolarRadiationWatts/m^2 W/m2 Conditions
00:03 -3.3 °C -12.3 °C 34256.2 hPa Calm     36 % 0 mm 0.0 W/m2 CLR
00:08 -3.4 °C -12.6 °C 34256.2 hPa Calm     35 % 0 mm 0.0 W/m2 CLR
00:13 -3.5 °C -12.7 °C 34256.2 hPa Calm     35 % 0 mm 0.0 W/m2 CLR
00:18 -3.7 °C -12.4 °C 34246 hPa Calm     37 % 0 mm 0.0 W/m2 CLR
00:23 -3.8 °C -11.9 °C 34256.2 hPa Calm     40 % 0 mm 0.0 W/m2 CLR
00:28 -3.9 °C -12.1 °C 34256.2 hPa Calm     40 % 0 mm 0.0 W/m2 CLR
00:33 -4.1 °C -12.4 °C 34256.2 hPa Calm     39 % 0 mm 0.0 W/m2 CLR
00:38 -4.3 °C -11.3 °C 34256.2 hPa Calm     45 % 0 mm 0.0 W/m2 CLR
00:43 -4.5 °C -11.3 °C 34256.2 hPa Calm     46 % 0 mm 0.0 W/m2 CLR
00:48 -4.6 °C -11.5 °C 34256.2 hPa Calm     46 % 0 mm 0.0 W/m2 CLR
00:53 -4.8 °C -11.4 °C 34256.2 hPa Calm     47 % 0 mm 0.0 W/m2 CLR
00:58 -4.9 °C -11.6 °C 34256.2 hPa Calm     47 % 0 mm 0.0 W/m2 CLR
01:03 -4.9 °C -11.4 °C 34256.2 hPa Calm     48 % 0 mm 0.0 W/m2 CLR
01:08 -5.1 °C -11.6 °C 34256.2 hPa Calm     48 % 0 mm 0.0 W/m2 CLR
01:13 -5.1 °C -11.4 °C 34256.2 hPa Calm     49 % 0 mm 0.0 W/m2 CLR
01:18 -5.2 °C -11.8 °C 34256.2 hPa Calm     47 % 0 mm 0.0 W/m2 CLR
01:23 -5.1 °C -12.1 °C 34256.2 hPa Calm     45 % 0 mm 0.0 W/m2 CLR
01:28 -4.9 °C -11.9 °C 34256.2 hPa Calm     45 % 0 mm 0.0 W/m2 CLR
01:33 -4.8 °C -11.7 °C 34256.2 hPa Calm     46 % 0 mm 0.0 W/m2 CLR
01:38 -4.9 °C -11.9 °C 34246 hPa Calm     45 % 0 mm 0.0 W/m2 CLR
01:43 -4.9 °C -11.4 °C 34246 hPa Calm     48 % 0 mm 0.0 W/m2 CLR
01:48 -5.1 °C -11.7 °C 34246 hPa Calm     47 % 0 mm 0.0 W/m2 CLR
01:53 -5.3 °C -11.9 °C 34246 hPa Calm     47 % 0 mm 0.0 W/m2 CLR
01:58 -5.4 °C -12 °C 34246 hPa Calm     47 % 0 mm 0.0 W/m2 CLR
02:03 -5.4 °C -12 °C 34246 hPa SE 5.1 km/h 5.1 km/h 47 % 0 mm 0.0 W/m2 CLR
02:08 -5.4 °C -11.8 °C 34246 hPa Calm     48 % 0 mm 0.0 W/m2 CLR
02:11 -5.4 °C -11.6 °C 34246 hPa Calm     49 % 0 mm 0.0 W/m2 CLR
02:16 -5.6 °C -12 °C 34246 hPa Calm     48 % 0 mm 0.0 W/m2 CLR
02:21 -5.6 °C -12.4 °C 34246 hPa Calm     46 % 0 mm 0.0 W/m2 CLR
02:26 -5.5 °C -12.3 °C 34246 hPa Calm     46 % 0 mm 0.0 W/m2 CLR
02:36 -5.4 °C -12.4 °C 34246 hPa North 6 km/h 6 km/h 45 % 0 mm 0.0 W/m2 CLR
02:41 -5.4 °C -12.2 °C 34246 hPa ENE 2.6 km/h   46 % 0 mm 0.0 W/m2 CLR
02:46 -5.5 °C -12.4 °C 34246 hPa Calm     45 % 0 mm 0.0 W/m2 CLR
02:51 -5.4 °C -12.4 °C 34256.2 hPa Calm     45 % 0 mm 0.0 W/m2 CLR
02:56 -5.3 °C -12.1 °C 34246 hPa Calm     46 % 0 mm 0.0 W/m2 CLR
03:01 -5.3 °C -12.3 °C 34256.2 hPa Calm     45 % 0 mm 0.0 W/m2 CLR
03:06 -5.3 °C -12.3 °C 34246 hPa Calm     45 % 0 mm 0.0 W/m2 CLR
03:11 -5.4 °C -12 °C 34246 hPa Calm     47 % 0 mm 0.0 W/m2 CLR
03:16 -5.6 °C -11.8 °C 34246 hPa Calm     49 % 0 mm 0.0 W/m2 CLR
03:21 -5.8 °C -12 °C 34246 hPa Calm     49 % 0 mm 0.0 W/m2 CLR
03:26 -5.9 °C -11.7 °C 34246 hPa Calm     52 % 0 mm 0.0 W/m2 CLR
03:31 -6.2 °C -12 °C 34246 hPa Calm     51 % 0 mm 0.0 W/m2 CLR
03:36 -6.2 °C -11.9 °C 34246 hPa Calm     52 % 0 mm 0.0 W/m2 CLR
03:41 -6.3 °C -12 °C 34246 hPa Calm     52 % 0 mm 0.0 W/m2 CLR
03:46 -6.3 °C -12 °C 34246 hPa Calm     52 % 0 mm 0.0 W/m2 CLR
03:51 -6.4 °C -11.9 °C 34246 hPa Calm     53 % 0 mm 0.0 W/m2 CLR
03:56 -6.4 °C -11.8 °C 34246 hPa Calm     54 % 0 mm 0.0 W/m2 CLR
04:01 -6.4 °C -11.6 °C 34256.2 hPa Calm     55 % 0 mm 0.0 W/m2 CLR
04:06 -6.5 °C -11.6 °C 34256.2 hPa Calm     56 % 0 mm 0.0 W/m2 CLR
04:11 -6.6 °C -11.6 °C 34256.2 hPa Calm     56 % 0 mm 0.0 W/m2 CLR
04:16 -6.7 °C -11.6 °C 34256.2 hPa Calm     57 % 0 mm 0.0 W/m2 CLR
04:21 -6.8 °C -11.9 °C 34256.2 hPa Calm     55 % 0 mm 0.0 W/m2 CLR
04:26 -6.8 °C -11.8 °C 34246 hPa Calm     56 % 0 mm 0.0 W/m2 CLR
04:31 -6.9 °C -11.8 °C 34246 hPa Calm     57 % 0 mm 0.0 W/m2 CLR
04:36 -7.1 °C -11.9 °C 34256.2 hPa NNW 3.1 km/h   57 % 0 mm 0.0 W/m2 CLR
04:41 -7 °C -12 °C 34256.2 hPa Calm     56 % 0 mm 0.0 W/m2 CLR
04:46 -6.9 °C -11.8 °C 34256.2 hPa Calm     57 % 0 mm 0.0 W/m2 CLR
04:51 -6.9 °C -11.7 °C 34256.2 hPa Calm     58 % 0 mm 0.0 W/m2 CLR
04:56 -7 °C -11.6 °C 34256.2 hPa Calm     59 % 0 mm 0.0 W/m2 CLR
05:01 -7.1 °C -11.7 °C 34256.2 hPa Calm     59 % 0 mm 0.0 W/m2 CLR
05:06 -7.2 °C -11.7 °C 34256.2 hPa Calm     59 % 0 mm 0.0 W/m2 CLR
05:11 -7.2 °C -12.1 °C 34256.2 hPa Calm     57 % 0 mm 0.0 W/m2 CLR
05:16 -7.2 °C -12.1 °C 34256.2 hPa Calm     57 % 0 mm 0.0 W/m2 CLR
05:21 -7.3 °C -11.8 °C 34256.2 hPa Calm     59 % 0 mm 0.0 W/m2 CLR
05:26 -7.3 °C -11.8 °C 34256.2 hPa Calm     60 % 0 mm 0.0 W/m2 CLR
05:31 -7.4 °C -11.8 °C 34256.2 hPa Calm     60 % 0 mm 0.0 W/m2 CLR
05:36 -7.4 °C -11.9 °C 34256.2 hPa Calm     60 % 0 mm 0.0 W/m2 CLR
05:41 -7.6 °C -11.8 °C 34256.2 hPa Calm     61 % 0 mm 0.0 W/m2 CLR
05:46 -7.6 °C -11.8 °C 34256.2 hPa Calm     61 % 0 mm 0.0 W/m2 CLR
05:51 -7.6 °C -11.9 °C 34269.7 hPa Calm     61 % 0 mm 0.0 W/m2 CLR
05:56 -7.7 °C -11.8 °C 34269.7 hPa Calm     62 % 0 mm 0.0 W/m2 CLR
06:01 -7.7 °C -11.6 °C 34269.7 hPa Calm     64 % 0 mm 0.0 W/m2 CLR
06:06 -7.8 °C -11.7 °C 34269.7 hPa Calm     64 % 0 mm 0.0 W/m2 CLR
06:11 -7.9 °C -11.8 °C 34269.7 hPa Calm     63 % 0 mm 0.0 W/m2 CLR
06:16 -7.9 °C -11.8 °C 34269.7 hPa Calm     64 % 0 mm 0.0 W/m2 OVC
06:21 -7.9 °C -11.8 °C 34269.7 hPa Calm     64 % 0 mm 0.0 W/m2 OVC
06:26 -8 °C -11.7 °C 34269.7 hPa Calm     65 % 0 mm 0.0 W/m2 OVC
06:31 -8.1 °C -11.6 °C 34269.7 hPa Calm     66 % 0 mm 5.0 W/m2 OVC
06:33 -8.1 °C -11.8 °C 34269.7 hPa Calm     65 % 0 mm 7.0 W/m2 BKN
06:38 -8.1 °C -11.8 °C 34269.7 hPa Calm     65 % 0 mm 9.0 W/m2 BKN
06:43 -8.1 °C -11.9 °C 34269.7 hPa Calm     64 % 0 mm 12.0 W/m2 BKN
06:48 -8.1 °C -11.9 °C 34269.7 hPa Calm     64 % 0 mm 16.0 W/m2 BKN
06:53 -8.1 °C -11.8 °C 34279.9 hPa Calm     65 % 0 mm 19.0 W/m2 BKN
06:58 -8.1 °C -11.6 °C 34279.9 hPa Calm     67 % 0 mm 23.0 W/m2 BKN
07:03 -8.2 °C -12 °C 34279.9 hPa Calm     64 % 0 mm 28.0 W/m2 BKN
07:08 -8 °C -11.7 °C 34279.9 hPa Calm     65 % 0 mm 37.0 W/m2 BKN
07:13 -7.9 °C -11.8 °C 34279.9 hPa Calm     64 % 0 mm 44.0 W/m2 BKN
07:18 -7.9 °C -11.7 °C 34279.9 hPa Calm     64 % 0 mm 54.0 W/m2 SCT
07:23 -7.7 °C -11.6 °C 34293.4 hPa Calm     64 % 0 mm 63.0 W/m2 SCT
07:28 -7.6 °C -11.6 °C 34293.4 hPa Calm     63 % 0 mm 74.0 W/m2 SCT
07:33 -7.5 °C -11.6 °C 34293.4 hPa Calm     62 % 0 mm 86.0 W/m2 FEW
07:38 -7.4 °C -11.7 °C 34293.4 hPa Calm     61 % 0 mm 102.0 W/m2 CLR
07:43 -7.3 °C -11.6 °C 34303.6 hPa Calm     61 % 0 mm 116.0 W/m2 CLR
07:48 -7.2 °C -11.8 °C 34293.4 hPa Calm     59 % 0 mm 132.0 W/m2 CLR
07:53 -7.1 °C -11.5 °C 34303.6 hPa Calm     60 % 0 mm 146.0 W/m2 CLR
07:58 -6.9 °C -11.4 °C 34303.6 hPa Calm     59 % 0 mm 165.0 W/m2 CLR
08:03 -6.7 °C -11.6 °C 34303.6 hPa Calm     57 % 0 mm 181.0 W/m2 CLR
08:08 -6.5 °C -11.4 °C 34303.6 hPa Calm     57 % 0 mm 195.0 W/m2 CLR
08:13 -6.2 °C -11.4 °C 34303.6 hPa Calm     55 % 0 mm 211.0 W/m2 CLR
08:18 -6 °C -11.3 °C 34303.6 hPa Calm     54 % 0 mm 229.0 W/m2 CLR
08:23 -5.8 °C -11.6 °C 34303.6 hPa Calm     52 % 0 mm 244.0 W/m2 CLR
08:28 -5.6 °C -11.3 °C 34303.6 hPa Calm     52 % 0 mm 258.0 W/m2 CLR
08:33 -5.3 °C -11.6 °C 34303.6 hPa Calm     49 % 0 mm 274.0 W/m2 CLR
08:38 -5.1 °C -11.2 °C 34303.6 hPa Calm     50 % 0 mm 290.0 W/m2 CLR
08:43 -4.8 °C -11.5 °C 34303.6 hPa Calm     47 % 0 mm 306.0 W/m2 CLR
08:48 -4.6 °C -11.3 °C 34303.6 hPa Calm     47 % 0 mm 322.0 W/m2 CLR
08:53 -4.4 °C -11.4 °C 34303.6 hPa Calm     45 % 0 mm 338.0 W/m2 CLR
08:58 -4.2 °C -11.3 °C 34293.4 hPa Calm     45 % 0 mm 352.0 W/m2 CLR
09:03 -4.1 °C -11.1 °C 34293.4 hPa Calm     45 % 0 mm 369.0 W/m2 CLR
09:08 -3.9 °C -11.2 °C 34303.6 hPa Calm     44 % 0 mm 387.0 W/m2 CLR
09:13 -3.8 °C -11.1 °C 34293.4 hPa Calm     44 % 0 mm 401.0 W/m2 CLR
09:18 -3.7 °C -11 °C 34303.6 hPa Calm     44 % 0 mm 415.0 W/m2 CLR
09:23 -3.6 °C -11.1 °C 34303.6 hPa Calm     43 % 0 mm 431.0 W/m2 CLR
09:28 -3.3 °C -11.5 °C 34303.6 hPa Calm     40 % 0 mm 448.0 W/m2 CLR
09:33 -3.1 °C -11.3 °C 34303.6 hPa Calm     40 % 0 mm 464.0 W/m2 CLR
09:38 -2.8 °C -11.9 °C 34293.4 hPa Calm     36 % 0 mm 480.0 W/m2 CLR
09:43 -2.6 °C -11.5 °C 34293.4 hPa Calm     37 % 0 mm 496.0 W/m2 CLR
09:48 -2.6 °C -11.7 °C 34293.4 hPa Calm     36 % 0 mm 513.0 W/m2 CLR
09:53 -2.5 °C -11.6 °C 34303.6 hPa Calm     36 % 0 mm 526.0 W/m2 CLR
09:59 -2.4 °C -11.6 °C 34303.6 hPa Calm     36 % 0 mm 540.0 W/m2 CLR
10:09 -2.3 °C -11.2 °C 34303.6 hPa Calm     37 % 0 mm 570.0 W/m2 CLR
10:14 -2.1 °C -11.3 °C 34303.6 hPa Calm     36 % 0 mm 580.0 W/m2 CLR
10:19 -2 °C -11.2 °C 34303.6 hPa ENE 9 km/h 9 km/h 36 % 0 mm 594.0 W/m2 CLR
10:24 -1.9 °C -11.3 °C 34303.6 hPa ENE 11.9 km/h 11.9 km/h 35 % 0 mm 606.0 W/m2 CLR
10:29 -1.8 °C -11.2 °C 34293.4 hPa ENE 15 km/h 15 km/h 35 % 0 mm 621.0 W/m2 CLR
10:34 -1.7 °C -11.2 °C 34293.4 hPa ENE 15 km/h 15 km/h 35 % 0 mm 631.0 W/m2 CLR
10:39 -1.6 °C -11 °C 34293.4 hPa ENE 6 km/h 6 km/h 35 % 0 mm 643.0 W/m2 CLR
10:44 -1.4 °C -11.2 °C 34293.4 hPa Calm   1 km/h 34 % 0 mm 656.0 W/m2 CLR
10:49 -1.4 °C -11.1 °C 34293.4 hPa East 20.9 km/h 20.9 km/h 34 % 0 mm 670.0 W/m2 CLR
10:54 -1.4 °C -11.2 °C 34293.4 hPa East 15 km/h 15 km/h 34 % 0 mm 684.0 W/m2 CLR
10:59 -1.4 °C -11.2 °C 34293.4 hPa ENE 20.9 km/h 20.9 km/h 34 % 0 mm 693.0 W/m2 CLR
11:04 -1.2 °C -10.5 °C 34293.4 hPa ENE 20.9 km/h 20.9 km/h 36 % 0 mm 705.0 W/m2 CLR
11:09 -1.1 °C -10.2 °C 34293.4 hPa ENE 6 km/h 6 km/h 37 % 0 mm 712.0 W/m2 CLR
11:14 -0.9 °C -10.2 °C 34293.4 hPa ENE 6 km/h 6 km/h 36 % 0 mm 728.0 W/m2 CLR
11:19 -0.9 °C -10.2 °C 34293.4 hPa ENE 20.9 km/h 20.9 km/h 36 % 0 mm 738.0 W/m2 CLR
11:24 -0.9 °C -10.2 °C 34293.4 hPa ENE 11.9 km/h 11.9 km/h 36 % 0 mm 747.0 W/m2 CLR
11:29 -0.8 °C -10.4 °C 34293.4 hPa ENE 20.9 km/h 20.9 km/h 35 % 0 mm 759.0 W/m2 CLR
11:34 -1.1 °C -10.6 °C 34293.4 hPa NE 20.9 km/h 20.9 km/h 35 % 0 mm 772.0 W/m2 CLR
11:39 -0.9 °C -10.5 °C 34293.4 hPa ENE 18.2 km/h 18.2 km/h 35 % 0 mm 780.0 W/m2 CLR
11:44 -0.8 °C -10.3 °C 34293.4 hPa ENE 15 km/h 15 km/h 35 % 0 mm 789.0 W/m2 CLR
11:49 -0.8 °C -10.8 °C 34293.4 hPa ENE 20.8 km/h 20.8 km/h 33 % 0 mm 800.0 W/m2 CLR
11:54 -0.7 °C -11.1 °C 34293.4 hPa ENE 15 km/h 15 km/h 32 % 0 mm 809.0 W/m2 CLR
11:59 -0.7 °C -10.8 °C 34293.4 hPa East 20.9 km/h 20.9 km/h 33 % 0 mm 819.0 W/m2 CLR
12:04 -0.5 °C -10.9 °C 34293.4 hPa ENE 7.7 km/h 7.7 km/h 32 % 0 mm 828.0 W/m2 CLR
12:09 -0.4 °C -11.3 °C 34293.4 hPa Calm     30 % 0 mm 837.0 W/m2 CLR
12:14 -0.3 °C -11.2 °C 34293.4 hPa NE 3.1 km/h   30 % 0 mm 844.0 W/m2 CLR
12:19 -0.1 °C -10.8 °C 34293.4 hPa Calm     31 % 0 mm 849.0 W/m2 CLR
12:24 0.1 °C -10.6 °C 34293.4 hPa East 10.3 km/h 10.3 km/h 31 % 0 mm 856.0 W/m2 CLR
12:29 0.3 °C -10.7 °C 34293.4 hPa NE 6 km/h 6 km/h 30 % 0 mm 865.0 W/m2 CLR
12:34 0.5 °C -10.6 °C 34293.4 hPa ENE 17.9 km/h 17.9 km/h 30 % 0 mm 870.0 W/m2 CLR
12:39 0.5 °C -10.5 °C 34293.4 hPa NE 3.1 km/h   30 % 0 mm 875.0 W/m2 CLR
12:44 0.5 °C -10.6 °C 34293.4 hPa ENE 11.9 km/h 11.9 km/h 30 % 0 mm 882.0 W/m2 CLR
12:49 0.6 °C -10.2 °C 34293.4 hPa NE 15 km/h 15 km/h 31 % 0 mm 888.0 W/m2 CLR
12:54 0.7 °C -10.1 °C 34293.4 hPa ENE 5.1 km/h 5.1 km/h 31 % 0 mm 893.0 W/m2 CLR
12:59 0.8 °C -9.9 °C 34279.9 hPa NE 17.9 km/h 17.9 km/h 31 % 0 mm 896.0 W/m2 CLR
13:04 0.8 °C -10.2 °C 34279.9 hPa ENE 11.9 km/h 11.9 km/h 30 % 0 mm 900.0 W/m2 CLR
13:09 0.9 °C -10.2 °C 34279.9 hPa NE 12.9 km/h 12.9 km/h 30 % 0 mm 902.0 W/m2 CLR
13:14 0.9 °C -9.9 °C 34279.9 hPa NE 11.9 km/h 11.9 km/h 31 % 0 mm 909.0 W/m2 CLR
13:19 1.1 °C -10.1 °C 34279.9 hPa NNE 20.9 km/h 20.9 km/h 30 % 0 mm 911.0 W/m2 CLR
13:24 1.1 °C -9.8 °C 34279.9 hPa ENE 12.9 km/h 12.9 km/h 31 % 0 mm 912.0 W/m2 CLR
13:29 1.2 °C -9.7 °C 34269.7 hPa NNE 17.9 km/h 17.9 km/h 31 % 0 mm 914.0 W/m2 CLR
13:34 1.3 °C -9.8 °C 34269.7 hPa Calm     30 % 0 mm 916.0 W/m2 CLR
13:39 1.3 °C -9.6 °C 34269.7 hPa Calm     31 % 0 mm 918.0 W/m2 CLR
13:44 1.4 °C -9.5 °C 34269.7 hPa NE 15.6 km/h 15.6 km/h 31 % 0 mm 921.0 W/m2 CLR
13:49 1.5 °C -9.4 °C 34269.7 hPa Calm     31 % 0 mm 919.0 W/m2 CLR
13:54 1.4 °C -9.7 °C 34269.7 hPa NE 23.8 km/h 23.8 km/h 30 % 0 mm 921.0 W/m2 CLR
13:59 1.6 °C -9.3 °C 34269.7 hPa NE 15.6 km/h 15.6 km/h 31 % 0 mm 925.0 W/m2 CLR
14:04 1.6 °C -9.6 °C 34256.2 hPa East 26.9 km/h 26.9 km/h 30 % 0 mm 921.0 W/m2 CLR
14:09 1.5 °C -9.7 °C 34256.2 hPa Calm     30 % 0 mm 923.0 W/m2 CLR
14:14 1.5 °C -9.7 °C 34256.2 hPa ESE 15 km/h 15 km/h 30 % 0 mm 921.0 W/m2 CLR
14:19 1.6 °C -9.6 °C 34256.2 hPa SE 3.1 km/h 3.1 km/h 30 % 0 mm 921.0 W/m2 CLR
14:24 1.8 °C -9.7 °C 34256.2 hPa ESE 20.9 km/h 20.9 km/h 29 % 0 mm 919.0 W/m2 CLR
14:29 1.8 °C -9.7 °C 34246 hPa SE 20.9 km/h 20.9 km/h 29 % 0 mm 918.0 W/m2 CLR
14:34 1.8 °C -9.4 °C 34246 hPa Calm     30 % 0 mm 912.0 W/m2 CLR
14:39 1.8 °C -9.4 °C 34246 hPa ESE 17.9 km/h 17.9 km/h 30 % 0 mm 911.0 W/m2 CLR
14:44 1.9 °C -9.6 °C 34246 hPa ENE 6 km/h 6 km/h 29 % 0 mm 909.0 W/m2 CLR
14:49 2 °C -9.6 °C 34246 hPa ENE 11.9 km/h 11.9 km/h 29 % 0 mm 905.0 W/m2 CLR
14:54 2.2 °C -9.7 °C 34246 hPa SSE 6 km/h 6 km/h 28 % 0 mm 900.0 W/m2 CLR
14:59 2.1 °C -9.4 °C 34235.8 hPa SE 15.6 km/h 15.6 km/h 29 % 0 mm 895.0 W/m2 CLR
15:04 2 °C -9.6 °C 34235.8 hPa Calm     29 % 0 mm 893.0 W/m2 CLR
15:09 2.1 °C -9.4 °C 34235.8 hPa East 15 km/h 15 km/h 29 % 0 mm 886.0 W/m2 CLR
15:14 2.2 °C -9.7 °C 34235.8 hPa ESE 10.3 km/h 10.3 km/h 28 % 0 mm 879.0 W/m2 CLR
15:19 2.1 °C -9.4 °C 34235.8 hPa ENE 20.9 km/h 20.9 km/h 29 % 0 mm 875.0 W/m2 CLR
15:24 2.3 °C -9.6 °C 34235.8 hPa NNE 20.9 km/h 20.9 km/h 28 % 0 mm 872.0 W/m2 CLR
15:29 2.6 °C -9.4 °C 34222.3 hPa North 17.9 km/h 17.9 km/h 28 % 0 mm 863.0 W/m2 CLR
15:34 2.6 °C -9.7 °C 34222.3 hPa ESE 15 km/h 15 km/h 27 % 0 mm 856.0 W/m2 CLR
15:39 2.4 °C -9.6 °C 34222.3 hPa Calm   0.3 km/h 28 % 0 mm 847.0 W/m2 CLR
15:44 2.4 °C -9.2 °C 34222.3 hPa East 18.2 km/h 18.2 km/h 29 % 0 mm 842.0 W/m2 CLR
15:49 2.4 °C -9.2 °C 34222.3 hPa ENE 20.9 km/h 20.9 km/h 29 % 0 mm 835.0 W/m2 CLR
15:54 2.4 °C -9.2 °C 34222.3 hPa East 29.8 km/h 29.8 km/h 29 % 0 mm 830.0 W/m2 CLR
15:59 2.3 °C -9 °C 34222.3 hPa East 23.8 km/h 23.8 km/h 30 % 0 mm 817.0 W/m2 CLR
16:04 2.3 °C -9.3 °C 34212.1 hPa NE 26.9 km/h 26.9 km/h 29 % 0 mm 810.0 W/m2 CLR
16:09 2.2 °C -9.1 °C 34212.1 hPa ENE 20.9 km/h 20.9 km/h 30 % 0 mm 800.0 W/m2 CLR
16:14 2.2 °C -9.1 °C 34212.1 hPa SE 29.8 km/h 29.8 km/h 30 % 0 mm 793.0 W/m2 CLR
16:19 2.2 °C -9.1 °C 34212.1 hPa SE 20.9 km/h 20.9 km/h 30 % 0 mm 784.0 W/m2 CLR
16:24 2.3 °C -9 °C 34212.1 hPa ESE 17.9 km/h 17.9 km/h 30 % 0 mm 772.0 W/m2 CLR
16:29 2.3 °C -9.3 °C 34212.1 hPa East 26.9 km/h 26.9 km/h 29 % 0 mm 761.0 W/m2 CLR
16:34 2.2 °C -9.1 °C 34212.1 hPa SE 26.9 km/h 26.9 km/h 30 % 0 mm 752.0 W/m2 CLR
16:39 2.2 °C -9.1 °C 34198.6 hPa ESE 29.8 km/h 29.8 km/h 30 % 0 mm 744.0 W/m2 CLR
16:44 2.2 °C -9.3 °C 34198.6 hPa East 23.8 km/h 23.8 km/h 29 % 0 mm 731.0 W/m2 CLR
16:49 2.1 °C -9.4 °C 34198.6 hPa SE 26.9 km/h 26.9 km/h 29 % 0 mm 721.0 W/m2 CLR
16:54 2 °C -9.6 °C 34198.6 hPa ESE 33.6 km/h 33.6 km/h 29 % 0 mm 710.0 W/m2 CLR
16:59 1.9 °C -9.6 °C 34198.6 hPa ESE 35.7 km/h 35.7 km/h 29 % 0 mm 700.0 W/m2 CLR
17:04 1.9 °C -9.6 °C 34198.6 hPa ESE 23.3 km/h 23.3 km/h 29 % 0 mm 686.0 W/m2 CLR
17:09 1.9 °C -9.6 °C 34198.6 hPa East 23.8 km/h 23.8 km/h 29 % 0 mm 677.0 W/m2 CLR
17:14 2.1 °C -9.5 °C 34198.6 hPa East 20.9 km/h 20.9 km/h 29 % 0 mm 664.0 W/m2 CLR
17:19 2 °C -9.8 °C 34198.6 hPa East 29.8 km/h 29.8 km/h 28 % 0 mm 654.0 W/m2 CLR
17:24 1.9 °C -9.6 °C 34188.4 hPa ESE 35.7 km/h 35.7 km/h 29 % 0 mm 640.0 W/m2 CLR
17:30 2 °C -10.2 °C 34188.4 hPa ESE 29.8 km/h 29.8 km/h 27 % 0 mm 628.0 W/m2 CLR
17:35 2 °C -9.8 °C 34188.4 hPa ESE 29.8 km/h 29.8 km/h 28 % 0 mm 615.0 W/m2 CLR
17:43 2 °C -9.6 °C 34188.4 hPa East 29.8 km/h 29.8 km/h 29 % 0 mm 591.0 W/m2 CLR
17:48 1.8 °C -9.7 °C 34188.4 hPa ESE 31.1 km/h 31.1 km/h 29 % 0 mm 573.0 W/m2 CLR
17:53 1.8 °C -10.1 °C 34188.4 hPa ESE 35.7 km/h 35.7 km/h 28 % 0 mm 559.0 W/m2 CLR
17:58 1.7 °C -9.8 °C 34188.4 hPa ESE 26.9 km/h 26.9 km/h 29 % 0 mm 547.0 W/m2 CLR
18:03 1.7 °C -9.8 °C 34188.4 hPa East 25.9 km/h 25.9 km/h 29 % 0 mm 529.0 W/m2 CLR
18:08 1.7 °C -9.5 °C 34188.4 hPa ESE 29.8 km/h 29.8 km/h 30 % 0 mm 515.0 W/m2 CLR
18:13 1.7 °C -9.8 °C 34188.4 hPa SE 32.8 km/h 32.8 km/h 29 % 0 mm 501.0 W/m2 CLR
18:18 1.7 °C -9.6 °C 34188.4 hPa SE 25.9 km/h 25.9 km/h 30 % 0 mm 487.0 W/m2 CLR
18:23 1.7 °C -9.6 °C 34188.4 hPa East 31.1 km/h 31.1 km/h 30 % 0 mm 468.0 W/m2 CLR
18:28 1.6 °C -9.6 °C 34188.4 hPa SE 33.6 km/h 33.6 km/h 30 % 0 mm 454.0 W/m2 CLR
18:33 1.6 °C -9.6 °C 34178.3 hPa ESE 15 km/h 15 km/h 30 % 0 mm 439.0 W/m2 CLR
18:38 1.7 °C -9.6 °C 34188.4 hPa SE 29.8 km/h 29.8 km/h 30 % 0 mm 424.0 W/m2 CLR
18:43 1.7 °C -9.6 °C 34188.4 hPa ESE 29.8 km/h 29.8 km/h 30 % 0 mm 404.0 W/m2 CLR
18:48 1.7 °C -9.3 °C 34178.3 hPa East 20.9 km/h 20.9 km/h 31 % 0 mm 390.0 W/m2 CLR
18:53 1.6 °C -9.3 °C 34178.3 hPa ESE 29.8 km/h 29.8 km/h 31 % 0 mm 376.0 W/m2 CLR
18:58 1.6 °C -9.3 °C 34178.3 hPa ESE 20.9 km/h 20.9 km/h 31 % 0 mm 360.0 W/m2 CLR
19:03 1.6 °C -9.3 °C 34178.3 hPa SE 23.8 km/h 23.8 km/h 31 % 0 mm 343.0 W/m2 CLR
19:08 1.6 °C -9.6 °C 34178.3 hPa ESE 26.9 km/h 26.9 km/h 30 % 0 mm 323.0 W/m2 CLR
19:13 1.5 °C -9.7 °C 34178.3 hPa SE 20.9 km/h 20.9 km/h 30 % 0 mm 309.0 W/m2 CLR
19:18 1.5 °C -9.4 °C 34178.3 hPa SE 23.8 km/h 23.8 km/h 31 % 0 mm 299.0 W/m2 CLR
19:23 1.4 °C -9.4 °C 34178.3 hPa SE 26.9 km/h 26.9 km/h 31 % 0 mm 288.0 W/m2 CLR
19:28 1.4 °C -9.5 °C 34178.3 hPa ESE 20.8 km/h 20.8 km/h 31 % 0 mm 274.0 W/m2 CLR
19:33 1.4 °C -10.1 °C 34178.3 hPa ESE 20.8 km/h 20.8 km/h 29 % 0 mm 255.0 W/m2 CLR
19:38 1.4 °C -9.5 °C 34188.4 hPa SE 25.9 km/h 25.9 km/h 31 % 0 mm 243.0 W/m2 CLR
19:43 1.3 °C -9.9 °C 34188.4 hPa SSE 26.9 km/h 26.9 km/h 30 % 0 mm 229.0 W/m2 CLR
19:48 1.2 °C -9.9 °C 34188.4 hPa SE 26.9 km/h 26.9 km/h 30 % 0 mm 213.0 W/m2 CLR
19:53 1.1 °C -9.7 °C 34188.4 hPa East 26.9 km/h 26.9 km/h 31 % 0 mm 192.0 W/m2 CLR
19:58 0.9 °C -9.6 °C 34188.4 hPa ESE 9 km/h 9 km/h 32 % 0 mm 174.0 W/m2 CLR
20:03 0.9 °C -9.7 °C 34188.4 hPa ESE 20.8 km/h 20.8 km/h 32 % 0 mm 160.0 W/m2 CLR
20:08 0.8 °C -9.7 °C 34188.4 hPa ESE 23.8 km/h 23.8 km/h 32 % 0 mm 144.0 W/m2 CLR
20:13 0.7 °C -9.8 °C 34188.4 hPa ESE 20.9 km/h 20.9 km/h 32 % 0 mm 128.0 W/m2 CLR
20:18 0.6 °C -9.6 °C 34188.4 hPa ESE 20.9 km/h 20.9 km/h 33 % 0 mm 113.0 W/m2 CLR
20:23 0.4 °C -9.8 °C 34198.6 hPa ESE 23.8 km/h 23.8 km/h 33 % 0 mm 98.0 W/m2 CLR
20:28 0.3 °C -9.6 °C 34188.4 hPa ESE 18.2 km/h 18.2 km/h 34 % 0 mm 88.0 W/m2 CLR
20:33 0.3 °C -9.7 °C 34188.4 hPa ESE 17.9 km/h 17.9 km/h 34 % 0 mm 74.0 W/m2 FEW
20:38 0.2 °C -9.8 °C 34198.6 hPa ESE 12.9 km/h 12.9 km/h 34 % 0 mm 65.0 W/m2 FEW
20:43 0.1 °C -9.8 °C 34198.6 hPa ESE 20.9 km/h 20.9 km/h 34 % 0 mm 47.0 W/m2 SCT
20:48 -0.1 °C -9.7 °C 34188.4 hPa ESE 23.8 km/h 23.8 km/h 35 % 0 mm 42.0 W/m2 BKN
20:53 -0.2 °C -9.8 °C 34198.6 hPa East 15 km/h 15 km/h 35 % 0 mm 39.0 W/m2 BKN
20:58 -0.3 °C -9.7 °C 34198.6 hPa ESE 11.9 km/h 11.9 km/h 36 % 0 mm 30.0 W/m2 BKN
21:03 -0.4 °C -9.7 °C 34198.6 hPa ESE 20.8 km/h 20.8 km/h 36 % 0 mm 26.0 W/m2 BKN
21:08 -0.4 °C -9.8 °C 34198.6 hPa SE 9 km/h 9 km/h 36 % 0 mm 21.0 W/m2 BKN
21:13 -0.5 °C -9.8 °C 34198.6 hPa Calm     36 % 0 mm 18.0 W/m2 BKN
21:18 -0.6 °C -9.9 °C 34198.6 hPa Calm     36 % 0 mm 14.0 W/m2 BKN
21:23 -0.7 °C -9.9 °C 34198.6 hPa Calm     36 % 0 mm 12.0 W/m2 BKN
21:28 -0.8 °C -9.8 °C 34198.6 hPa Calm     37 % 0 mm 9.0 W/m2 BKN
21:29 -0.8 °C -9.9 °C 34198.6 hPa Calm     37 % 0 mm 9.0 W/m2 BKN
21:34 -0.9 °C -10 °C 34198.6 hPa Calm     37 % 0 mm 5.0 W/m2 OVC
21:39 -1.1 °C -9.9 °C 34212.1 hPa Calm     38 % 0 mm 0.0 W/m2 OVC
21:44 -1.3 °C -10.1 °C 34212.1 hPa Calm     38 % 0 mm 0.0 W/m2 CLR
21:49 -1.3 °C -10.2 °C 34212.1 hPa Calm     38 % 0 mm 0.0 W/m2 CLR
21:54 -1.4 °C -10 °C 34212.1 hPa Calm     39 % 0 mm 0.0 W/m2 CLR
21:59 -1.6 °C -10.1 °C 34212.1 hPa Calm     39 % 0 mm 0.0 W/m2 CLR
22:04 -1.6 °C -9.9 °C 34212.1 hPa Calm     40 % 0 mm 0.0 W/m2 CLR
22:09 -1.8 °C -10.1 °C 34212.1 hPa Calm     40 % 0 mm 0.0 W/m2 CLR
22:14 -1.8 °C -10.1 °C 34212.1 hPa Calm     40 % 0 mm 0.0 W/m2 CLR
22:19 -1.9 °C -10.4 °C 34222.3 hPa Calm     39 % 0 mm 0.0 W/m2 CLR
22:24 -1.9 °C -10.2 °C 34222.3 hPa Calm     40 % 0 mm 0.0 W/m2 CLR
22:29 -2 °C -10.3 °C 34222.3 hPa Calm     40 % 0 mm 0.0 W/m2 CLR
22:34 -2.1 °C -10.4 °C 34222.3 hPa Calm     40 % 0 mm 0.0 W/m2 CLR
22:39 -2.2 °C -10.2 °C 34222.3 hPa Calm     41 % 0 mm 0.0 W/m2 CLR
22:44 -2.3 °C -10.3 °C 34235.8 hPa Calm     41 % 0 mm 0.0 W/m2 CLR
22:49 -2.4 °C -10.4 °C 34235.8 hPa Calm     41 % 0 mm 0.0 W/m2 CLR
22:54 -2.5 °C -10.3 °C 34235.8 hPa Calm     42 % 0 mm 0.0 W/m2 CLR
22:59 -2.6 °C -10.4 °C 34235.8 hPa Calm     42 % 0 mm 0.0 W/m2 CLR
23:04 -2.7 °C -10.4 °C 34235.8 hPa Calm     42 % 0 mm 0.0 W/m2 CLR
23:09 -2.7 °C -10.5 °C 34235.8 hPa Calm     42 % 0 mm 0.0 W/m2 CLR
23:14 -2.8 °C -10.4 °C 34235.8 hPa Calm     43 % 0 mm 0.0 W/m2 CLR
23:19 -2.8 °C -10.4 °C 34235.8 hPa Calm     43 % 0 mm 0.0 W/m2 CLR
23:24 -2.9 °C -10.4 °C 34235.8 hPa Calm     43 % 0 mm 0.0 W/m2 CLR
23:29 -2.9 °C -10.4 °C 34235.8 hPa Calm     43 % 0 mm 0.0 W/m2 CLR
23:34 -2.9 °C -10.3 °C 34235.8 hPa Calm     44 % 0 mm 0.0 W/m2 CLR
23:39 -3.1 °C -10.4 °C 34235.8 hPa Calm     44 % 0 mm 0.0 W/m2 CLR
23:44 -3.2 °C -10.3 °C 34235.8 hPa Calm     45 % 0 mm 0.0 W/m2 CLR
23:49 -3.2 °C -10.2 °C 34235.8 hPa Calm     46 % 0 mm 0.0 W/m2 CLR
23:54 -3.3 °C -10.3 °C 34235.8 hPa Calm     46 % 0 mm 0.0 W/m2 CLR
23:59 -3.4 °C -10.2 °C 34235.8 hPa Calm     47 % 0 mm 0.0 W/m2 CLR
Lo Temps de Massalio
Compliments of Weather Underground - 1.25 mb